sensor_id;sensor_type;location;lat;lon;timestamp;P1;durP1;ratioP1;P2;durP2;ratioP2
2966;SDS011;1493;51.496;7.210;2023-09-07T00:01:13;6.10;;;5.00;;
2966;SDS011;1493;51.496;7.210;2023-09-07T00:03:39;8.73;;;5.73;;
2966;SDS011;1493;51.496;7.210;2023-09-07T00:06:06;6.63;;;4.30;;
2966;SDS011;1493;51.496;7.210;2023-09-07T00:08:33;6.70;;;4.50;;
2966;SDS011;1493;51.496;7.210;2023-09-07T00:11:02;5.50;;;4.40;;
2966;SDS011;1493;51.496;7.210;2023-09-07T00:13:29;5.30;;;4.20;;
2966;SDS011;1493;51.496;7.210;2023-09-07T00:15:59;9.53;;;5.70;;
2966;SDS011;1493;51.496;7.210;2023-09-07T00:18:26;5.70;;;4.37;;
2966;SDS011;1493;51.496;7.210;2023-09-07T00:20:53;9.70;;;4.67;;
2966;SDS011;1493;51.496;7.210;2023-09-07T00:23:20;4.63;;;4.23;;
2966;SDS011;1493;51.496;7.210;2023-09-07T00:25:47;5.33;;;3.90;;
2966;SDS011;1493;51.496;7.210;2023-09-07T00:28:14;4.77;;;4.23;;
2966;SDS011;1493;51.496;7.210;2023-09-07T00:30:41;7.13;;;4.53;;
2966;SDS011;1493;51.496;7.210;2023-09-07T00:33:09;5.83;;;5.30;;
2966;SDS011;1493;51.496;7.210;2023-09-07T00:35:36;8.40;;;4.60;;
2966;SDS011;1493;51.496;7.210;2023-09-07T00:38:03;5.70;;;4.87;;
2966;SDS011;1493;51.496;7.210;2023-09-07T00:40:30;5.67;;;5.07;;
2966;SDS011;1493;51.496;7.210;2023-09-07T00:42:58;7.93;;;5.37;;
2966;SDS011;1493;51.496;7.210;2023-09-07T00:45:25;5.63;;;4.30;;
2966;SDS011;1493;51.496;7.210;2023-09-07T00:47:52;5.67;;;4.87;;
2966;SDS011;1493;51.496;7.210;2023-09-07T00:50:20;6.60;;;4.83;;
2966;SDS011;1493;51.496;7.210;2023-09-07T00:52:47;8.57;;;5.13;;
2966;SDS011;1493;51.496;7.210;2023-09-07T00:55:14;6.27;;;5.67;;
2966;SDS011;1493;51.496;7.210;2023-09-07T00:57:41;5.20;;;4.50;;
2966;SDS011;1493;51.496;7.210;2023-09-07T01:00:09;5.40;;;4.90;;
2966;SDS011;1493;51.496;7.210;2023-09-07T01:02:37;4.90;;;4.00;;
2966;SDS011;1493;51.496;7.210;2023-09-07T01:05:04;6.60;;;4.83;;
2966;SDS011;1493;51.496;7.210;2023-09-07T01:07:35;5.93;;;4.23;;
2966;SDS011;1493;51.496;7.210;2023-09-07T01:10:04;5.73;;;5.13;;
2966;SDS011;1493;51.496;7.210;2023-09-07T01:12:32;5.30;;;4.80;;
2966;SDS011;1493;51.496;7.210;2023-09-07T01:14:59;5.40;;;4.90;;
2966;SDS011;1493;51.496;7.210;2023-09-07T01:17:27;5.40;;;4.57;;
2966;SDS011;1493;51.496;7.210;2023-09-07T01:19:54;4.73;;;4.23;;
2966;SDS011;1493;51.496;7.210;2023-09-07T01:22:25;5.47;;;4.50;;
2966;SDS011;1493;51.496;7.210;2023-09-07T01:24:52;6.03;;;5.37;;
2966;SDS011;1493;51.496;7.210;2023-09-07T01:27:20;4.83;;;4.27;;
2966;SDS011;1493;51.496;7.210;2023-09-07T01:29:47;6.07;;;4.47;;
2966;SDS011;1493;51.496;7.210;2023-09-07T01:32:13;8.87;;;4.80;;
2966;SDS011;1493;51.496;7.210;2023-09-07T01:34:40;5.83;;;5.23;;
2966;SDS011;1493;51.496;7.210;2023-09-07T01:37:07;8.00;;;4.60;;
2966;SDS011;1493;51.496;7.210;2023-09-07T01:39:35;7.43;;;4.43;;
2966;SDS011;1493;51.496;7.210;2023-09-07T01:42:02;6.23;;;5.10;;
2966;SDS011;1493;51.496;7.210;2023-09-07T01:44:30;7.17;;;4.37;;
2966;SDS011;1493;51.496;7.210;2023-09-07T01:46:56;6.80;;;5.00;;
2966;SDS011;1493;51.496;7.210;2023-09-07T01:49:23;6.43;;;4.63;;
2966;SDS011;1493;51.496;7.210;2023-09-07T01:51:51;5.37;;;4.43;;
2966;SDS011;1493;51.496;7.210;2023-09-07T01:54:18;7.97;;;4.73;;
2966;SDS011;1493;51.496;7.210;2023-09-07T01:56:48;6.80;;;4.60;;
2966;SDS011;1493;51.496;7.210;2023-09-07T01:59:15;6.23;;;4.43;;
2966;SDS011;1493;51.496;7.210;2023-09-07T02:01:41;7.27;;;5.20;;
2966;SDS011;1493;51.496;7.210;2023-09-07T02:04:08;5.93;;;4.93;;
2966;SDS011;1493;51.496;7.210;2023-09-07T02:06:35;5.80;;;5.13;;
2966;SDS011;1493;51.496;7.210;2023-09-07T02:09:02;5.87;;;4.90;;
2966;SDS011;1493;51.496;7.210;2023-09-07T02:11:30;5.50;;;4.63;;
2966;SDS011;1493;51.496;7.210;2023-09-07T02:13:58;6.10;;;4.83;;
2966;SDS011;1493;51.496;7.210;2023-09-07T02:16:25;4.33;;;3.87;;
2966;SDS011;1493;51.496;7.210;2023-09-07T02:18:59;5.20;;;4.70;;
2966;SDS011;1493;51.496;7.210;2023-09-07T02:21:27;5.73;;;4.60;;
2966;SDS011;1493;51.496;7.210;2023-09-07T02:23:54;6.23;;;4.37;;
2966;SDS011;1493;51.496;7.210;2023-09-07T02:26:20;6.03;;;5.00;;
2966;SDS011;1493;51.496;7.210;2023-09-07T02:28:47;5.53;;;4.30;;
2966;SDS011;1493;51.496;7.210;2023-09-07T02:31:15;4.60;;;4.20;;
2966;SDS011;1493;51.496;7.210;2023-09-07T02:33:42;8.83;;;4.20;;
2966;SDS011;1493;51.496;7.210;2023-09-07T02:36:09;6.43;;;4.77;;
2966;SDS011;1493;51.496;7.210;2023-09-07T02:38:36;5.83;;;4.83;;
2966;SDS011;1493;51.496;7.210;2023-09-07T02:41:02;7.40;;;5.30;;
2966;SDS011;1493;51.496;7.210;2023-09-07T02:43:30;6.70;;;5.20;;
2966;SDS011;1493;51.496;7.210;2023-09-07T02:45:57;5.77;;;4.57;;
2966;SDS011;1493;51.496;7.210;2023-09-07T02:48:25;7.80;;;5.37;;
2966;SDS011;1493;51.496;7.210;2023-09-07T02:50:52;6.07;;;5.27;;
2966;SDS011;1493;51.496;7.210;2023-09-07T02:53:18;6.80;;;5.20;;
2966;SDS011;1493;51.496;7.210;2023-09-07T02:55:45;6.93;;;5.57;;
2966;SDS011;1493;51.496;7.210;2023-09-07T02:58:12;6.93;;;4.97;;
2966;SDS011;1493;51.496;7.210;2023-09-07T03:00:42;7.37;;;5.50;;
2966;SDS011;1493;51.496;7.210;2023-09-07T03:03:10;5.30;;;4.73;;
2966;SDS011;1493;51.496;7.210;2023-09-07T03:05:39;5.50;;;4.80;;
2966;SDS011;1493;51.496;7.210;2023-09-07T03:08:06;8.20;;;5.63;;
2966;SDS011;1493;51.496;7.210;2023-09-07T03:10:34;5.70;;;5.03;;
2966;SDS011;1493;51.496;7.210;2023-09-07T03:13:01;6.67;;;5.73;;
2966;SDS011;1493;51.496;7.210;2023-09-07T03:15:28;7.70;;;5.30;;
2966;SDS011;1493;51.496;7.210;2023-09-07T03:17:55;6.67;;;5.27;;
2966;SDS011;1493;51.496;7.210;2023-09-07T03:20:22;5.67;;;4.83;;
2966;SDS011;1493;51.496;7.210;2023-09-07T03:22:50;7.10;;;4.70;;
2966;SDS011;1493;51.496;7.210;2023-09-07T03:25:17;5.57;;;5.00;;
2966;SDS011;1493;51.496;7.210;2023-09-07T03:27:44;5.70;;;4.63;;
2966;SDS011;1493;51.496;7.210;2023-09-07T03:30:11;6.00;;;5.40;;
2966;SDS011;1493;51.496;7.210;2023-09-07T03:32:38;6.30;;;4.90;;
2966;SDS011;1493;51.496;7.210;2023-09-07T03:35:05;5.10;;;4.43;;
2966;SDS011;1493;51.496;7.210;2023-09-07T03:37:34;5.73;;;4.97;;
2966;SDS011;1493;51.496;7.210;2023-09-07T03:40:04;7.20;;;4.77;;
2966;SDS011;1493;51.496;7.210;2023-09-07T03:42:32;7.17;;;4.87;;
2966;SDS011;1493;51.496;7.210;2023-09-07T03:44:58;6.20;;;4.80;;
2966;SDS011;1493;51.496;7.210;2023-09-07T03:47:25;5.80;;;4.63;;
2966;SDS011;1493;51.496;7.210;2023-09-07T03:49:54;8.40;;;5.17;;
2966;SDS011;1493;51.496;7.210;2023-09-07T03:52:21;6.63;;;4.13;;
2966;SDS011;1493;51.496;7.210;2023-09-07T03:54:49;6.73;;;4.97;;
2966;SDS011;1493;51.496;7.210;2023-09-07T03:57:17;5.27;;;4.77;;
2966;SDS011;1493;51.496;7.210;2023-09-07T03:59:44;5.33;;;4.73;;
2966;SDS011;1493;51.496;7.210;2023-09-07T04:02:11;6.10;;;4.20;;
2966;SDS011;1493;51.496;7.210;2023-09-07T04:04:38;6.00;;;4.83;;
2966;SDS011;1493;51.496;7.210;2023-09-07T04:07:05;10.20;;;4.90;;
2966;SDS011;1493;51.496;7.210;2023-09-07T04:09:32;7.73;;;5.20;;
2966;SDS011;1493;51.496;7.210;2023-09-07T04:11:58;5.00;;;4.50;;
2966;SDS011;1493;51.496;7.210;2023-09-07T04:14:27;6.13;;;4.53;;
2966;SDS011;1493;51.496;7.210;2023-09-07T04:16:54;6.97;;;4.70;;
2966;SDS011;1493;51.496;7.210;2023-09-07T04:19:21;5.43;;;4.20;;
2966;SDS011;1493;51.496;7.210;2023-09-07T04:21:47;5.37;;;4.43;;
2966;SDS011;1493;51.496;7.210;2023-09-07T04:24:14;6.00;;;4.60;;
2966;SDS011;1493;51.496;7.210;2023-09-07T04:26:41;6.20;;;5.50;;
2966;SDS011;1493;51.496;7.210;2023-09-07T04:29:08;6.27;;;5.17;;
2966;SDS011;1493;51.496;7.210;2023-09-07T04:31:36;7.27;;;4.97;;
2966;SDS011;1493;51.496;7.210;2023-09-07T04:34:03;5.30;;;4.57;;
2966;SDS011;1493;51.496;7.210;2023-09-07T04:36:30;8.10;;;5.70;;
2966;SDS011;1493;51.496;7.210;2023-09-07T04:38:57;5.10;;;4.60;;
2966;SDS011;1493;51.496;7.210;2023-09-07T04:41:24;5.23;;;4.60;;
2966;SDS011;1493;51.496;7.210;2023-09-07T04:43:51;6.60;;;4.60;;
2966;SDS011;1493;51.496;7.210;2023-09-07T04:46:20;5.70;;;5.10;;
2966;SDS011;1493;51.496;7.210;2023-09-07T04:48:49;5.50;;;4.37;;
2966;SDS011;1493;51.496;7.210;2023-09-07T04:51:16;6.27;;;4.50;;
2966;SDS011;1493;51.496;7.210;2023-09-07T04:53:43;6.90;;;5.00;;
2966;SDS011;1493;51.496;7.210;2023-09-07T04:56:09;6.07;;;4.83;;
2966;SDS011;1493;51.496;7.210;2023-09-07T04:58:36;7.83;;;4.30;;
2966;SDS011;1493;51.496;7.210;2023-09-07T05:01:03;6.37;;;4.67;;
2966;SDS011;1493;51.496;7.210;2023-09-07T05:03:31;5.23;;;4.70;;
2966;SDS011;1493;51.496;7.210;2023-09-07T05:05:59;5.07;;;4.50;;
2966;SDS011;1493;51.496;7.210;2023-09-07T05:08:28;7.03;;;4.77;;
2966;SDS011;1493;51.496;7.210;2023-09-07T05:10:55;7.20;;;5.83;;
2966;SDS011;1493;51.496;7.210;2023-09-07T05:13:22;6.07;;;4.50;;
2966;SDS011;1493;51.496;7.210;2023-09-07T05:15:49;6.47;;;4.67;;
2966;SDS011;1493;51.496;7.210;2023-09-07T05:18:17;5.53;;;4.40;;
2966;SDS011;1493;51.496;7.210;2023-09-07T05:20:44;5.43;;;4.53;;
2966;SDS011;1493;51.496;7.210;2023-09-07T05:23:14;6.30;;;4.80;;
2966;SDS011;1493;51.496;7.210;2023-09-07T05:25:44;6.13;;;5.20;;
2966;SDS011;1493;51.496;7.210;2023-09-07T05:28:12;6.23;;;5.53;;
2966;SDS011;1493;51.496;7.210;2023-09-07T05:30:39;6.93;;;6.07;;
2966;SDS011;1493;51.496;7.210;2023-09-07T05:33:08;7.33;;;6.00;;
2966;SDS011;1493;51.496;7.210;2023-09-07T05:35:35;5.37;;;4.87;;
2966;SDS011;1493;51.496;7.210;2023-09-07T05:38:02;5.53;;;4.93;;
2966;SDS011;1493;51.496;7.210;2023-09-07T05:40:33;7.63;;;4.80;;
2966;SDS011;1493;51.496;7.210;2023-09-07T05:43:00;5.90;;;4.80;;
2966;SDS011;1493;51.496;7.210;2023-09-07T05:45:28;6.00;;;4.87;;
2966;SDS011;1493;51.496;7.210;2023-09-07T05:47:55;7.27;;;4.40;;
2966;SDS011;1493;51.496;7.210;2023-09-07T05:50:22;6.30;;;5.37;;
2966;SDS011;1493;51.496;7.210;2023-09-07T05:52:49;7.57;;;5.50;;
2966;SDS011;1493;51.496;7.210;2023-09-07T05:55:16;6.60;;;5.37;;
2966;SDS011;1493;51.496;7.210;2023-09-07T05:57:44;8.63;;;5.47;;
2966;SDS011;1493;51.496;7.210;2023-09-07T06:00:12;6.23;;;5.63;;
2966;SDS011;1493;51.496;7.210;2023-09-07T06:02:40;7.00;;;5.07;;
2966;SDS011;1493;51.496;7.210;2023-09-07T06:05:07;6.23;;;4.80;;
2966;SDS011;1493;51.496;7.210;2023-09-07T06:07:35;5.90;;;5.17;;
2966;SDS011;1493;51.496;7.210;2023-09-07T06:10:01;7.17;;;5.47;;
2966;SDS011;1493;51.496;7.210;2023-09-07T06:12:30;7.23;;;5.00;;
2966;SDS011;1493;51.496;7.210;2023-09-07T06:14:58;7.50;;;5.23;;
2966;SDS011;1493;51.496;7.210;2023-09-07T06:17:25;6.53;;;5.23;;
2966;SDS011;1493;51.496;7.210;2023-09-07T06:19:52;6.70;;;5.80;;
2966;SDS011;1493;51.496;7.210;2023-09-07T06:22:20;6.57;;;4.97;;
2966;SDS011;1493;51.496;7.210;2023-09-07T06:24:46;6.77;;;5.13;;
2966;SDS011;1493;51.496;7.210;2023-09-07T06:27:13;9.23;;;5.20;;
2966;SDS011;1493;51.496;7.210;2023-09-07T06:29:40;7.77;;;6.63;;
2966;SDS011;1493;51.496;7.210;2023-09-07T06:32:08;11.60;;;5.50;;
2966;SDS011;1493;51.496;7.210;2023-09-07T06:34:35;8.47;;;4.73;;
2966;SDS011;1493;51.496;7.210;2023-09-07T06:37:02;7.03;;;5.53;;
2966;SDS011;1493;51.496;7.210;2023-09-07T06:39:29;8.07;;;6.13;;
2966;SDS011;1493;51.496;7.210;2023-09-07T06:41:55;7.97;;;5.50;;
2966;SDS011;1493;51.496;7.210;2023-09-07T06:44:22;6.47;;;4.90;;
2966;SDS011;1493;51.496;7.210;2023-09-07T06:46:49;7.30;;;5.00;;
2966;SDS011;1493;51.496;7.210;2023-09-07T06:49:17;8.07;;;6.20;;
2966;SDS011;1493;51.496;7.210;2023-09-07T06:51:44;6.67;;;5.60;;
2966;SDS011;1493;51.496;7.210;2023-09-07T06:54:11;6.47;;;5.50;;
2966;SDS011;1493;51.496;7.210;2023-09-07T06:56:39;9.13;;;6.40;;
2966;SDS011;1493;51.496;7.210;2023-09-07T06:59:06;8.67;;;5.43;;
2966;SDS011;1493;51.496;7.210;2023-09-07T07:01:32;7.90;;;5.20;;
2966;SDS011;1493;51.496;7.210;2023-09-07T07:04:00;6.63;;;5.13;;
2966;SDS011;1493;51.496;7.210;2023-09-07T07:06:28;7.87;;;6.30;;
2966;SDS011;1493;51.496;7.210;2023-09-07T07:08:55;9.67;;;6.00;;
2966;SDS011;1493;51.496;7.210;2023-09-07T07:11:22;6.60;;;5.90;;
2966;SDS011;1493;51.496;7.210;2023-09-07T07:13:49;8.00;;;5.80;;
2966;SDS011;1493;51.496;7.210;2023-09-07T07:16:16;6.20;;;5.43;;
2966;SDS011;1493;51.496;7.210;2023-09-07T07:18:43;11.53;;;6.30;;
2966;SDS011;1493;51.496;7.210;2023-09-07T07:21:09;9.03;;;5.70;;
2966;SDS011;1493;51.496;7.210;2023-09-07T07:23:40;8.90;;;5.27;;
2966;SDS011;1493;51.496;7.210;2023-09-07T07:26:07;5.60;;;5.10;;
2966;SDS011;1493;51.496;7.210;2023-09-07T07:28:34;9.17;;;4.83;;
2966;SDS011;1493;51.496;7.210;2023-09-07T07:31:06;7.03;;;4.93;;
2966;SDS011;1493;51.496;7.210;2023-09-07T07:33:34;11.80;;;5.97;;
2966;SDS011;1493;51.496;7.210;2023-09-07T07:36:02;6.90;;;4.57;;
2966;SDS011;1493;51.496;7.210;2023-09-07T07:38:29;8.20;;;5.00;;
2966;SDS011;1493;51.496;7.210;2023-09-07T07:40:57;8.00;;;5.20;;
2966;SDS011;1493;51.496;7.210;2023-09-07T07:43:24;7.80;;;4.83;;
2966;SDS011;1493;51.496;7.210;2023-09-07T07:45:51;7.00;;;5.03;;
2966;SDS011;1493;51.496;7.210;2023-09-07T07:48:18;8.97;;;4.70;;
2966;SDS011;1493;51.496;7.210;2023-09-07T07:50:45;6.93;;;5.10;;
2966;SDS011;1493;51.496;7.210;2023-09-07T07:53:12;8.80;;;4.90;;
2966;SDS011;1493;51.496;7.210;2023-09-07T07:55:39;8.13;;;4.57;;
2966;SDS011;1493;51.496;7.210;2023-09-07T07:58:08;9.43;;;4.57;;
2966;SDS011;1493;51.496;7.210;2023-09-07T08:00:35;8.90;;;4.10;;
2966;SDS011;1493;51.496;7.210;2023-09-07T08:03:03;6.20;;;4.83;;
2966;SDS011;1493;51.496;7.210;2023-09-07T08:05:31;5.17;;;4.10;;
2966;SDS011;1493;51.496;7.210;2023-09-07T08:07:58;6.03;;;3.77;;
2966;SDS011;1493;51.496;7.210;2023-09-07T08:10:25;7.53;;;3.93;;
2966;SDS011;1493;51.496;7.210;2023-09-07T08:12:53;7.93;;;4.93;;
2966;SDS011;1493;51.496;7.210;2023-09-07T08:15:22;7.57;;;4.53;;
2966;SDS011;1493;51.496;7.210;2023-09-07T08:17:50;6.50;;;4.80;;
2966;SDS011;1493;51.496;7.210;2023-09-07T08:20:17;6.00;;;5.17;;
2966;SDS011;1493;51.496;7.210;2023-09-07T08:22:43;6.17;;;4.60;;
2966;SDS011;1493;51.496;7.210;2023-09-07T08:25:10;5.37;;;4.40;;
2966;SDS011;1493;51.496;7.210;2023-09-07T08:27:38;8.90;;;4.13;;
2966;SDS011;1493;51.496;7.210;2023-09-07T08:30:08;7.43;;;4.43;;
2966;SDS011;1493;51.496;7.210;2023-09-07T08:32:39;5.77;;;4.50;;
2966;SDS011;1493;51.496;7.210;2023-09-07T08:35:06;7.30;;;4.37;;
2966;SDS011;1493;51.496;7.210;2023-09-07T08:37:34;6.60;;;4.40;;
2966;SDS011;1493;51.496;7.210;2023-09-07T08:40:01;6.13;;;4.10;;
2966;SDS011;1493;51.496;7.210;2023-09-07T08:42:30;7.97;;;4.00;;
2966;SDS011;1493;51.496;7.210;2023-09-07T08:44:56;5.80;;;3.73;;
2966;SDS011;1493;51.496;7.210;2023-09-07T08:47:31;4.20;;;3.70;;
2966;SDS011;1493;51.496;7.210;2023-09-07T08:50:01;8.63;;;4.20;;
2966;SDS011;1493;51.496;7.210;2023-09-07T08:52:28;9.43;;;4.23;;
2966;SDS011;1493;51.496;7.210;2023-09-07T08:54:56;7.10;;;4.37;;
2966;SDS011;1493;51.496;7.210;2023-09-07T08:57:25;4.87;;;3.90;;
2966;SDS011;1493;51.496;7.210;2023-09-07T08:59:53;8.63;;;4.20;;
2966;SDS011;1493;51.496;7.210;2023-09-07T09:02:20;7.30;;;4.60;;
2966;SDS011;1493;51.496;7.210;2023-09-07T09:04:47;7.67;;;4.30;;
2966;SDS011;1493;51.496;7.210;2023-09-07T09:07:16;5.20;;;4.00;;
2966;SDS011;1493;51.496;7.210;2023-09-07T09:09:43;4.40;;;3.93;;
2966;SDS011;1493;51.496;7.210;2023-09-07T09:12:10;6.00;;;3.70;;
2966;SDS011;1493;51.496;7.210;2023-09-07T09:14:39;6.47;;;4.43;;
2966;SDS011;1493;51.496;7.210;2023-09-07T09:17:10;7.33;;;3.67;;
2966;SDS011;1493;51.496;7.210;2023-09-07T09:19:37;5.03;;;3.80;;
2966;SDS011;1493;51.496;7.210;2023-09-07T09:22:04;4.30;;;2.97;;
2966;SDS011;1493;51.496;7.210;2023-09-07T09:24:33;6.33;;;4.03;;
2966;SDS011;1493;51.496;7.210;2023-09-07T09:27:00;4.30;;;3.70;;
2966;SDS011;1493;51.496;7.210;2023-09-07T09:29:27;4.70;;;3.30;;
2966;SDS011;1493;51.496;7.210;2023-09-07T09:31:54;6.60;;;3.83;;
2966;SDS011;1493;51.496;7.210;2023-09-07T09:34:21;5.10;;;3.90;;
2966;SDS011;1493;51.496;7.210;2023-09-07T09:36:48;4.00;;;2.80;;
2966;SDS011;1493;51.496;7.210;2023-09-07T09:39:21;4.70;;;3.37;;
2966;SDS011;1493;51.496;7.210;2023-09-07T09:41:51;4.40;;;2.83;;
2966;SDS011;1493;51.496;7.210;2023-09-07T09:44:20;4.00;;;3.60;;
2966;SDS011;1493;51.496;7.210;2023-09-07T09:46:50;3.70;;;3.20;;
2966;SDS011;1493;51.496;7.210;2023-09-07T09:49:18;5.40;;;3.43;;
2966;SDS011;1493;51.496;7.210;2023-09-07T09:51:46;4.43;;;3.80;;
2966;SDS011;1493;51.496;7.210;2023-09-07T09:54:15;4.80;;;4.20;;
2966;SDS011;1493;51.496;7.210;2023-09-07T09:56:43;5.87;;;4.13;;
2966;SDS011;1493;51.496;7.210;2023-09-07T09:59:12;5.60;;;3.37;;
2966;SDS011;1493;51.496;7.210;2023-09-07T10:01:40;4.67;;;3.73;;
2966;SDS011;1493;51.496;7.210;2023-09-07T10:04:09;4.10;;;3.23;;
2966;SDS011;1493;51.496;7.210;2023-09-07T10:06:38;4.70;;;3.77;;
2966;SDS011;1493;51.496;7.210;2023-09-07T10:09:16;4.13;;;3.73;;
2966;SDS011;1493;51.496;7.210;2023-09-07T10:11:50;6.40;;;3.20;;
2966;SDS011;1493;51.496;7.210;2023-09-07T10:14:19;5.67;;;4.03;;
2966;SDS011;1493;51.496;7.210;2023-09-07T10:16:47;6.67;;;3.70;;
2966;SDS011;1493;51.496;7.210;2023-09-07T10:19:15;6.00;;;4.23;;
2966;SDS011;1493;51.496;7.210;2023-09-07T10:21:42;4.13;;;3.73;;
2966;SDS011;1493;51.496;7.210;2023-09-07T10:24:10;6.33;;;4.03;;
2966;SDS011;1493;51.496;7.210;2023-09-07T10:26:37;5.30;;;3.90;;
2966;SDS011;1493;51.496;7.210;2023-09-07T10:29:04;4.87;;;3.93;;
2966;SDS011;1493;51.496;7.210;2023-09-07T10:31:32;5.13;;;3.43;;
2966;SDS011;1493;51.496;7.210;2023-09-07T10:34:08;5.57;;;4.10;;
2966;SDS011;1493;51.496;7.210;2023-09-07T10:36:37;5.80;;;3.43;;
2966;SDS011;1493;51.496;7.210;2023-09-07T10:39:04;4.30;;;3.53;;
2966;SDS011;1493;51.496;7.210;2023-09-07T10:41:39;3.27;;;2.90;;
2966;SDS011;1493;51.496;7.210;2023-09-07T10:44:07;4.20;;;3.73;;
2966;SDS011;1493;51.496;7.210;2023-09-07T10:46:37;3.67;;;3.13;;
2966;SDS011;1493;51.496;7.210;2023-09-07T10:49:05;4.20;;;3.20;;
2966;SDS011;1493;51.496;7.210;2023-09-07T10:51:39;3.93;;;3.43;;
2966;SDS011;1493;51.496;7.210;2023-09-07T10:54:13;9.00;;;3.90;;
2966;SDS011;1493;51.496;7.210;2023-09-07T10:56:40;5.37;;;4.80;;
2966;SDS011;1493;51.496;7.210;2023-09-07T10:59:09;3.57;;;3.03;;
2966;SDS011;1493;51.496;7.210;2023-09-07T11:01:37;4.53;;;3.90;;
2966;SDS011;1493;51.496;7.210;2023-09-07T11:04:04;5.23;;;3.90;;
2966;SDS011;1493;51.496;7.210;2023-09-07T11:06:33;7.10;;;3.53;;
2966;SDS011;1493;51.496;7.210;2023-09-07T11:09:01;4.63;;;4.03;;
2966;SDS011;1493;51.496;7.210;2023-09-07T11:11:34;5.13;;;4.00;;
2966;SDS011;1493;51.496;7.210;2023-09-07T11:14:01;5.90;;;3.47;;
2966;SDS011;1493;51.496;7.210;2023-09-07T11:16:29;4.77;;;3.80;;
2966;SDS011;1493;51.496;7.210;2023-09-07T11:18:59;3.53;;;3.07;;
2966;SDS011;1493;51.496;7.210;2023-09-07T11:21:29;4.30;;;3.50;;
2966;SDS011;1493;51.496;7.210;2023-09-07T11:23:57;3.90;;;3.43;;
2966;SDS011;1493;51.496;7.210;2023-09-07T11:26:24;6.83;;;3.93;;
2966;SDS011;1493;51.496;7.210;2023-09-07T11:28:51;6.77;;;4.57;;
2966;SDS011;1493;51.496;7.210;2023-09-07T11:31:20;4.47;;;3.63;;
2966;SDS011;1493;51.496;7.210;2023-09-07T11:33:47;6.10;;;3.93;;
2966;SDS011;1493;51.496;7.210;2023-09-07T11:36:16;6.00;;;3.80;;
2966;SDS011;1493;51.496;7.210;2023-09-07T11:38:43;6.23;;;3.70;;
2966;SDS011;1493;51.496;7.210;2023-09-07T11:41:11;9.53;;;4.10;;
2966;SDS011;1493;51.496;7.210;2023-09-07T11:43:38;4.30;;;3.90;;
2966;SDS011;1493;51.496;7.210;2023-09-07T11:46:05;5.17;;;3.70;;
2966;SDS011;1493;51.496;7.210;2023-09-07T11:48:32;4.07;;;3.60;;
2966;SDS011;1493;51.496;7.210;2023-09-07T11:50:59;4.97;;;3.87;;
2966;SDS011;1493;51.496;7.210;2023-09-07T11:53:28;9.13;;;3.60;;
2966;SDS011;1493;51.496;7.210;2023-09-07T11:55:55;6.10;;;4.63;;
2966;SDS011;1493;51.496;7.210;2023-09-07T11:58:23;4.70;;;4.00;;
2966;SDS011;1493;51.496;7.210;2023-09-07T12:00:51;5.10;;;4.37;;
2966;SDS011;1493;51.496;7.210;2023-09-07T12:03:19;5.00;;;3.97;;
2966;SDS011;1493;51.496;7.210;2023-09-07T12:05:44;4.07;;;3.53;;
2966;SDS011;1493;51.496;7.210;2023-09-07T12:08:11;4.93;;;4.33;;
2966;SDS011;1493;51.496;7.210;2023-09-07T12:10:40;4.77;;;3.97;;
2966;SDS011;1493;51.496;7.210;2023-09-07T12:13:07;5.80;;;4.00;;
2966;SDS011;1493;51.496;7.210;2023-09-07T12:15:34;5.30;;;3.87;;
2966;SDS011;1493;51.496;7.210;2023-09-07T12:18:01;5.43;;;3.80;;
2966;SDS011;1493;51.496;7.210;2023-09-07T12:20:28;10.20;;;3.60;;
2966;SDS011;1493;51.496;7.210;2023-09-07T12:22:55;4.70;;;4.30;;
2966;SDS011;1493;51.496;7.210;2023-09-07T12:25:22;4.57;;;4.10;;
2966;SDS011;1493;51.496;7.210;2023-09-07T12:27:51;5.63;;;4.50;;
2966;SDS011;1493;51.496;7.210;2023-09-07T12:30:18;5.33;;;4.33;;
2966;SDS011;1493;51.496;7.210;2023-09-07T12:32:47;5.53;;;4.13;;
2966;SDS011;1493;51.496;7.210;2023-09-07T12:35:14;6.30;;;4.03;;
2966;SDS011;1493;51.496;7.210;2023-09-07T12:37:40;4.60;;;3.63;;
2966;SDS011;1493;51.496;7.210;2023-09-07T12:40:08;8.17;;;4.00;;
2966;SDS011;1493;51.496;7.210;2023-09-07T12:42:37;5.07;;;3.70;;
2966;SDS011;1493;51.496;7.210;2023-09-07T12:45:07;4.83;;;3.70;;
2966;SDS011;1493;51.496;7.210;2023-09-07T12:47:35;6.53;;;4.27;;
2966;SDS011;1493;51.496;7.210;2023-09-07T12:50:02;5.97;;;4.00;;
2966;SDS011;1493;51.496;7.210;2023-09-07T12:52:32;5.03;;;4.07;;
2966;SDS011;1493;51.496;7.210;2023-09-07T12:54:59;4.90;;;4.40;;
2966;SDS011;1493;51.496;7.210;2023-09-07T12:57:26;4.30;;;3.90;;
2966;SDS011;1493;51.496;7.210;2023-09-07T12:59:53;5.43;;;4.00;;
2966;SDS011;1493;51.496;7.210;2023-09-07T13:02:21;4.70;;;3.70;;
2966;SDS011;1493;51.496;7.210;2023-09-07T13:04:48;5.03;;;3.67;;
2966;SDS011;1493;51.496;7.210;2023-09-07T13:07:15;6.00;;;4.07;;
2966;SDS011;1493;51.496;7.210;2023-09-07T13:09:42;6.40;;;3.73;;
2966;SDS011;1493;51.496;7.210;2023-09-07T13:12:10;4.60;;;3.60;;
2966;SDS011;1493;51.496;7.210;2023-09-07T13:14:37;6.80;;;4.40;;
2966;SDS011;1493;51.496;7.210;2023-09-07T13:17:09;5.93;;;4.57;;
2966;SDS011;1493;51.496;7.210;2023-09-07T13:19:39;10.33;;;4.63;;
2966;SDS011;1493;51.496;7.210;2023-09-07T13:22:06;4.50;;;4.10;;
2966;SDS011;1493;51.496;7.210;2023-09-07T13:24:33;5.40;;;3.93;;
2966;SDS011;1493;51.496;7.210;2023-09-07T13:27:00;6.97;;;4.63;;
2966;SDS011;1493;51.496;7.210;2023-09-07T13:29:28;6.73;;;3.97;;
2966;SDS011;1493;51.496;7.210;2023-09-07T13:31:56;6.37;;;4.50;;
2966;SDS011;1493;51.496;7.210;2023-09-07T13:34:24;5.70;;;4.70;;
2966;SDS011;1493;51.496;7.210;2023-09-07T13:36:52;5.27;;;4.33;;
2966;SDS011;1493;51.496;7.210;2023-09-07T13:39:19;4.90;;;4.10;;
2966;SDS011;1493;51.496;7.210;2023-09-07T13:41:46;5.67;;;4.50;;
2966;SDS011;1493;51.496;7.210;2023-09-07T13:44:13;4.60;;;4.20;;
2966;SDS011;1493;51.496;7.210;2023-09-07T13:46:40;6.97;;;4.60;;
2966;SDS011;1493;51.496;7.210;2023-09-07T13:49:08;7.67;;;3.83;;
2966;SDS011;1493;51.496;7.210;2023-09-07T13:51:35;5.40;;;4.60;;
2966;SDS011;1493;51.496;7.210;2023-09-07T13:54:06;5.30;;;4.37;;
2966;SDS011;1493;51.496;7.210;2023-09-07T13:56:33;4.87;;;3.90;;
2966;SDS011;1493;51.496;7.210;2023-09-07T13:59:01;4.93;;;3.57;;
2966;SDS011;1493;51.496;7.210;2023-09-07T14:01:28;8.63;;;4.37;;
2966;SDS011;1493;51.496;7.210;2023-09-07T14:03:55;5.60;;;4.07;;
2966;SDS011;1493;51.496;7.210;2023-09-07T14:06:22;5.10;;;4.27;;
2966;SDS011;1493;51.496;7.210;2023-09-07T14:08:49;5.20;;;4.70;;
2966;SDS011;1493;51.496;7.210;2023-09-07T14:11:17;5.40;;;4.70;;
2966;SDS011;1493;51.496;7.210;2023-09-07T14:13:44;6.17;;;4.73;;
2966;SDS011;1493;51.496;7.210;2023-09-07T14:16:16;6.83;;;4.17;;
2966;SDS011;1493;51.496;7.210;2023-09-07T14:18:43;6.67;;;5.10;;
2966;SDS011;1493;51.496;7.210;2023-09-07T14:21:10;4.23;;;3.57;;
2966;SDS011;1493;51.496;7.210;2023-09-07T14:23:37;5.83;;;3.83;;
2966;SDS011;1493;51.496;7.210;2023-09-07T14:26:03;4.93;;;4.30;;
2966;SDS011;1493;51.496;7.210;2023-09-07T14:28:32;5.20;;;4.50;;
2966;SDS011;1493;51.496;7.210;2023-09-07T14:30:58;4.20;;;3.40;;
2966;SDS011;1493;51.496;7.210;2023-09-07T14:33:28;4.37;;;3.47;;
2966;SDS011;1493;51.496;7.210;2023-09-07T14:35:55;4.83;;;3.87;;
2966;SDS011;1493;51.496;7.210;2023-09-07T14:38:24;5.53;;;4.10;;
2966;SDS011;1493;51.496;7.210;2023-09-07T14:40:52;4.33;;;3.77;;
2966;SDS011;1493;51.496;7.210;2023-09-07T14:43:20;6.13;;;4.77;;
2966;SDS011;1493;51.496;7.210;2023-09-07T14:45:48;5.27;;;3.53;;
2966;SDS011;1493;51.496;7.210;2023-09-07T14:48:15;4.20;;;3.50;;
2966;SDS011;1493;51.496;7.210;2023-09-07T14:50:42;3.63;;;3.30;;
2966;SDS011;1493;51.496;7.210;2023-09-07T14:53:09;3.70;;;3.40;;
2966;SDS011;1493;51.496;7.210;2023-09-07T14:55:35;4.43;;;3.67;;
2966;SDS011;1493;51.496;7.210;2023-09-07T14:58:03;5.40;;;3.67;;
2966;SDS011;1493;51.496;7.210;2023-09-07T15:00:32;5.00;;;3.63;;
2966;SDS011;1493;51.496;7.210;2023-09-07T15:03:00;4.17;;;3.73;;
2966;SDS011;1493;51.496;7.210;2023-09-07T15:05:27;4.10;;;3.70;;
2966;SDS011;1493;51.496;7.210;2023-09-07T15:07:54;5.30;;;3.70;;
2966;SDS011;1493;51.496;7.210;2023-09-07T15:10:21;5.33;;;3.73;;
2966;SDS011;1493;51.496;7.210;2023-09-07T15:12:50;4.03;;;3.30;;
2966;SDS011;1493;51.496;7.210;2023-09-07T15:15:17;5.03;;;3.60;;
2966;SDS011;1493;51.496;7.210;2023-09-07T15:17:46;3.80;;;3.20;;